createdAt,value
2024-03-02T00:01:19.920Z,19.05
2024-03-02T00:06:28.785Z,19.98
2024-03-02T00:11:37.320Z,19.08
2024-03-02T00:16:46.138Z,19.60
2024-03-02T00:21:55.277Z,19.38
2024-03-02T00:27:00.685Z,19.65
2024-03-02T00:32:04.918Z,18.30
2024-03-02T00:37:14.057Z,18.08
2024-03-02T00:42:24.900Z,19.50
2024-03-02T00:47:33.910Z,19.88
2024-03-02T00:52:43.141Z,20.17
2024-03-02T00:57:53.304Z,19.83
2024-03-02T01:02:56.980Z,19.00
2024-03-02T01:08:06.385Z,19.52
2024-03-02T01:13:16.501Z,18.60
2024-03-02T01:18:25.431Z,16.95
2024-03-02T01:23:29.108Z,17.73
2024-03-02T01:28:39.105Z,17.48
2024-03-02T01:33:47.848Z,16.80
2024-03-02T01:38:56.511Z,17.38
2024-03-02T01:44:06.734Z,18.23
2024-03-02T01:49:15.527Z,17.13
2024-03-02T01:54:24.602Z,16.80
2024-03-02T01:59:34.832Z,17.33
2024-03-02T02:04:43.713Z,17.33
2024-03-02T02:09:52.424Z,18.20
2024-03-02T02:15:02.701Z,16.83
2024-03-02T02:20:12.232Z,17.85
2024-03-02T02:25:22.302Z,17.35
2024-03-02T02:30:32.094Z,17.92
2024-03-02T02:35:40.797Z,17.65
2024-03-02T02:40:46.068Z,17.38
2024-03-02T02:45:49.986Z,16.88
2024-03-02T02:50:53.660Z,17.45
2024-03-02T02:55:58.693Z,18.48
2024-03-02T03:01:02.561Z,17.27
2024-03-02T03:06:11.424Z,16.73
2024-03-02T03:11:22.307Z,16.63
2024-03-02T03:16:26.563Z,17.02
2024-03-02T03:21:35.321Z,17.77
2024-03-02T03:26:52.630Z,17.27
2024-03-02T03:32:01.310Z,16.98
2024-03-02T03:37:05.265Z,17.90
2024-03-02T03:42:15.371Z,17.35
2024-03-02T03:47:19.056Z,16.98
2024-03-02T03:52:27.689Z,16.90
2024-03-02T03:57:37.756Z,16.50
2024-03-02T04:02:46.433Z,16.48
2024-03-02T04:07:50.223Z,20.05
2024-03-02T04:12:55.380Z,19.73
2024-03-02T04:17:59.206Z,19.25
2024-03-02T04:23:09.224Z,19.77
2024-03-02T04:28:19.186Z,19.30
2024-03-02T04:33:27.854Z,18.02
2024-03-02T04:38:36.754Z,19.20
2024-03-02T04:43:46.789Z,19.92
2024-03-02T04:48:58.360Z,20.30
2024-03-02T04:54:07.171Z,20.85
2024-03-02T04:59:17.325Z,19.38
2024-03-02T05:04:21.067Z,20.60
2024-03-02T05:09:29.713Z,20.05
2024-03-02T05:14:34.720Z,21.33
2024-03-02T05:19:43.387Z,20.60
2024-03-02T05:24:52.158Z,19.90
2024-03-02T05:29:57.405Z,20.65
2024-03-02T05:35:06.975Z,21.75
2024-03-02T05:40:15.893Z,21.98
2024-03-02T05:45:25.973Z,22.75
2024-03-02T05:50:29.801Z,20.90
2024-03-02T05:55:33.576Z,23.70
2024-03-02T06:00:43.769Z,21.98
2024-03-02T06:05:52.997Z,23.45
2024-03-02T06:11:01.713Z,24.25
2024-03-02T06:16:11.780Z,21.75
2024-03-02T06:21:19.584Z,22.27
2024-03-02T06:26:25.790Z,24.35
2024-03-02T06:31:36.389Z,23.77
2024-03-02T06:36:45.250Z,23.42
2024-03-02T06:41:49.192Z,23.02
2024-03-02T06:46:59.209Z,23.45
2024-03-02T06:52:10.985Z,24.42
2024-03-02T06:57:14.980Z,25.35
2024-03-02T07:02:20.269Z,24.27
2024-03-02T07:07:28.907Z,23.33
2024-03-02T07:12:37.769Z,23.90
2024-03-02T07:17:47.755Z,23.35
2024-03-02T07:22:56.346Z,23.15
2024-03-02T07:28:05.568Z,24.75
2024-03-02T07:33:18.015Z,24.85
2024-03-02T07:38:22.391Z,26.00
2024-03-02T07:43:31.064Z,24.00
2024-03-02T07:48:41.129Z,23.85
2024-03-02T07:53:45.712Z,22.67
2024-03-02T07:58:58.443Z,21.95
2024-03-02T08:04:09.608Z,23.58
2024-03-02T08:09:13.383Z,21.80
2024-03-02T08:14:22.035Z,24.45
2024-03-02T08:19:32.119Z,21.80
2024-03-02T08:24:40.877Z,23.20
2024-03-02T08:29:52.010Z,25.35
2024-03-02T08:34:57.081Z,22.02
2024-03-02T08:40:01.358Z,23.60
2024-03-02T08:45:10.982Z,23.92
2024-03-02T08:50:21.002Z,22.60
2024-03-02T08:55:29.960Z,22.10
2024-03-02T09:00:38.822Z,23.75
2024-03-02T09:05:49.028Z,21.58
2024-03-02T09:10:58.492Z,21.92
2024-03-02T09:16:02.285Z,20.30
2024-03-02T09:21:08.557Z,20.90
2024-03-02T09:26:17.833Z,18.85
2024-03-02T09:31:27.741Z,19.35
2024-03-02T09:36:32.758Z,18.30
2024-03-02T09:41:41.980Z,17.70
2024-03-02T09:46:51.345Z,17.48
2024-03-02T09:52:01.709Z,16.58
2024-03-02T09:57:10.807Z,17.60
2024-03-02T10:02:19.903Z,17.63
2024-03-02T10:07:24.969Z,16.77
2024-03-02T10:12:33.732Z,17.40
2024-03-02T10:17:42.498Z,18.08
2024-03-02T10:22:52.659Z,15.52
2024-03-02T10:28:02.112Z,16.42
2024-03-02T10:33:07.922Z,15.30
2024-03-02T10:38:13.872Z,15.27
2024-03-02T10:43:23.185Z,15.05
2024-03-02T10:48:33.664Z,15.93
2024-03-02T10:53:43.831Z,14.77
2024-03-02T10:58:57.593Z,15.93
2024-03-02T11:04:06.757Z,13.77
2024-03-02T11:09:18.517Z,14.02
2024-03-02T11:14:27.579Z,14.05
2024-03-02T11:19:38.023Z,13.75
2024-03-02T11:24:54.948Z,11.95
2024-03-02T11:30:04.481Z,11.10
2024-03-02T11:35:13.117Z,10.90
2024-03-02T11:40:24.179Z,11.52
2024-03-02T11:45:34.978Z,10.75
2024-03-02T11:50:45.455Z,8.95
2024-03-02T11:55:57.610Z,9.00
2024-03-02T12:01:01.465Z,7.97
2024-03-02T12:06:05.918Z,7.57
2024-03-02T12:11:17.339Z,8.50
2024-03-02T12:16:26.117Z,8.88
2024-03-02T12:21:30.019Z,8.25
2024-03-02T12:26:35.130Z,8.13
2024-03-02T12:31:44.450Z,8.73
2024-03-02T12:36:50.804Z,9.60
2024-03-02T12:41:56.432Z,11.15
2024-03-02T12:47:01.741Z,14.85
2024-03-02T12:52:06.910Z,19.60
2024-03-02T12:57:20.700Z,22.10
2024-03-02T13:02:24.366Z,14.73
2024-03-02T13:07:34.763Z,19.80
2024-03-02T13:12:44.937Z,12.32
2024-03-02T13:17:48.787Z,15.95
2024-03-02T13:22:57.573Z,13.32
2024-03-02T13:28:08.918Z,16.02
2024-03-02T13:33:12.861Z,14.48
2024-03-02T13:38:22.702Z,17.60
2024-03-02T13:43:33.606Z,20.80
2024-03-02T13:48:37.726Z,15.30
2024-03-02T13:53:46.432Z,11.77
2024-03-02T13:58:56.504Z,12.48
2024-03-02T14:04:05.675Z,14.15
2024-03-02T14:09:14.417Z,12.82
2024-03-02T14:14:25.499Z,13.20
2024-03-02T14:19:29.449Z,14.15
2024-03-02T14:24:38.285Z,15.00
2024-03-02T14:29:43.456Z,13.20
2024-03-02T14:34:52.173Z,13.90
2024-03-02T14:40:01.055Z,14.23
2024-03-02T14:45:07.499Z,25.65
2024-03-02T14:50:17.822Z,41.55
2024-03-02T14:55:26.686Z,32.03
2024-03-02T15:00:36.847Z,20.17
2024-03-02T15:05:46.841Z,18.35
2024-03-02T15:10:50.871Z,19.50
2024-03-02T15:16:01.147Z,18.83
2024-03-02T15:21:05.380Z,20.63
2024-03-02T15:26:14.229Z,20.63
2024-03-02T15:31:24.332Z,20.63
2024-03-02T15:36:33.151Z,21.13
2024-03-02T15:41:41.900Z,21.15
2024-03-02T15:46:47.142Z,21.15
2024-03-02T15:51:56.129Z,22.92
2024-03-02T15:57:00.277Z,25.73
2024-03-02T16:02:05.991Z,25.33
2024-03-02T16:07:15.333Z,24.67
2024-03-02T16:12:19.213Z,26.88
2024-03-02T16:17:29.248Z,28.52
2024-03-02T16:22:33.005Z,31.42
2024-03-02T16:27:44.688Z,28.58
2024-03-02T16:32:54.994Z,26.65
2024-03-02T16:37:58.670Z,26.75
2024-03-02T16:43:07.816Z,27.65
2024-03-02T16:48:12.968Z,25.35
2024-03-02T16:53:18.398Z,24.98
2024-03-02T16:58:27.091Z,25.23
2024-03-02T17:03:37.349Z,25.35
2024-03-02T17:08:46.579Z,25.88
2024-03-02T17:13:53.427Z,26.92
2024-03-02T17:18:59.076Z,29.40
2024-03-02T17:24:03.794Z,27.88
2024-03-02T17:29:13.161Z,28.05
2024-03-02T17:34:25.013Z,27.13
2024-03-02T17:39:33.733Z,28.90
2024-03-02T17:44:38.060Z,25.77
2024-03-02T17:49:48.242Z,24.90
2024-03-02T17:54:57.076Z,24.08
2024-03-02T18:00:00.867Z,24.08
2024-03-02T18:05:11.993Z,22.85
2024-03-02T18:10:15.778Z,23.60
2024-03-02T18:15:19.528Z,22.23
2024-03-02T18:20:29.596Z,21.92
2024-03-02T18:25:38.418Z,21.02
2024-03-02T18:30:42.283Z,19.75
2024-03-02T18:35:52.524Z,21.05
2024-03-02T18:41:01.330Z,21.05
2024-03-02T18:46:12.075Z,20.98
2024-03-02T18:51:24.286Z,20.00
2024-03-02T18:56:28.029Z,19.10
2024-03-02T19:01:31.872Z,18.50
2024-03-02T19:06:41.900Z,20.13
2024-03-02T19:11:45.694Z,17.88
2024-03-02T19:16:54.589Z,16.95
2024-03-02T19:22:10.913Z,18.00
2024-03-02T19:27:20.583Z,16.35
2024-03-02T19:32:30.321Z,16.95
2024-03-02T19:37:37.179Z,17.05
2024-03-02T19:42:47.664Z,15.25
2024-03-02T19:47:51.654Z,14.85
2024-03-02T19:53:03.940Z,16.58
2024-03-02T19:58:07.655Z,16.80
2024-03-02T20:03:16.385Z,16.27
2024-03-02T20:08:27.487Z,14.13
2024-03-02T20:13:36.386Z,14.77
2024-03-02T20:18:40.039Z,13.13
2024-03-02T20:23:50.255Z,14.00
2024-03-02T20:28:58.967Z,13.90
2024-03-02T20:34:07.788Z,12.27
2024-03-02T20:39:18.697Z,12.93
2024-03-02T20:44:27.568Z,12.82
2024-03-02T20:49:32.164Z,12.18
2024-03-02T20:54:42.272Z,12.93
2024-03-02T20:59:46.209Z,12.60
2024-03-02T21:04:49.951Z,13.93
2024-03-02T21:09:59.940Z,11.48
2024-03-02T21:15:09.400Z,13.48
2024-03-02T21:20:18.283Z,13.70
2024-03-02T21:25:28.561Z,15.13
2024-03-02T21:30:37.660Z,12.63
2024-03-02T21:35:41.630Z,13.05
2024-03-02T21:40:46.710Z,12.43
2024-03-02T21:45:50.387Z,13.35
2024-03-02T21:50:59.076Z,13.25
2024-03-02T21:56:04.338Z,14.70
2024-03-02T22:01:08.299Z,15.23
2024-03-02T22:06:17.906Z,14.13
2024-03-02T22:11:28.162Z,14.20
2024-03-02T22:16:36.908Z,13.68
2024-03-02T22:21:45.874Z,12.93
2024-03-02T22:26:51.063Z,12.93
2024-03-02T22:31:54.890Z,14.98
2024-03-02T22:36:58.747Z,12.52
2024-03-02T22:42:08.905Z,12.73
2024-03-02T22:47:17.679Z,13.13
2024-03-02T22:52:26.325Z,13.15
2024-03-02T22:57:31.614Z,13.15
2024-03-02T23:02:40.288Z,13.77
2024-03-02T23:07:43.932Z,14.30
2024-03-02T23:12:54.131Z,14.60
2024-03-02T23:18:02.866Z,14.25
2024-03-02T23:23:11.535Z,15.60
2024-03-02T23:28:17.654Z,21.35
2024-03-02T23:33:21.800Z,18.02
2024-03-02T23:38:30.444Z,18.80
2024-03-02T23:43:40.861Z,17.02
2024-03-02T23:48:44.580Z,16.98
2024-03-02T23:53:48.351Z,17.08
2024-03-02T23:58:58.925Z,16.60
